Aviation Digital Data Service (ADDS)

Output produced by METARs form (1155 UTC 22 March 2019)
found at http://www.aviationweather.gov/metar/data/
 
METAR text: GFLL 211600Z 31007KT 8000 HZ FEW014 31/22 Q1007
Conditions at: GFLL (FREETOWN/LUNGI , SL) observed 1600 UTC 21 March 2019
Temperature: 31.0°C (88°F)
Dewpoint: 22.0°C (72°F) [RH = 59%]
Pressure (altimeter): 29.73 inches Hg (1007.0 mb)
Winds: from the NW (310 degrees) at 8 MPH (7 knots; 3.6 m/s)
Visibility: 5 miles ( 8 km)
Ceiling: at least 12,000 feet AGL
Clouds: few clouds at 1400 feet AGL
Weather: HZ  (haze)

METAR text: GFLL 211500Z 29008KT 8000 HZ FEW014 32/22 Q1008
Conditions at: GFLL (FREETOWN/LUNGI , SL) observed 1500 UTC 21 March 2019
Temperature: 32.0°C (90°F)
Dewpoint: 22.0°C (72°F) [RH = 56%]
Pressure (altimeter): 29.76 inches Hg (1008.0 mb)
Winds: from the WNW (290 degrees) at 9 MPH (8 knots; 4.1 m/s)
Visibility: 5 miles ( 8 km)
Ceiling: at least 12,000 feet AGL
Clouds: few clouds at 1400 feet AGL
Weather: HZ  (haze)

METAR text: GFLL 211400Z 30010KT 8000 HZ SCT014 32/22 Q1009
Conditions at: GFLL (FREETOWN/LUNGI , SL) observed 1400 UTC 21 March 2019
Temperature: 32.0°C (90°F)
Dewpoint: 22.0°C (72°F) [RH = 56%]
Pressure (altimeter): 29.79 inches Hg (1009.0 mb)
Winds: from the WNW (300 degrees) at 12 MPH (10 knots; 5.1 m/s)
Visibility: 5 miles ( 8 km)
Ceiling: at least 12,000 feet AGL
Clouds: scattered clouds at 1400 feet AGL
Weather: HZ  (haze)

METAR text: GFLL 211200Z 30008KT 8000 HZ SCT013 30/23 Q1011
Conditions at: GFLL (FREETOWN/LUNGI , SL) observed 1200 UTC 21 March 2019
Temperature: 30.0°C (86°F)
Dewpoint: 23.0°C (73°F) [RH = 66%]
Pressure (altimeter): 29.85 inches Hg (1011.0 mb)
Winds: from the WNW (300 degrees) at 9 MPH (8 knots; 4.1 m/s)
Visibility: 5 miles ( 8 km)
Ceiling: at least 12,000 feet AGL
Clouds: scattered clouds at 1300 feet AGL
Weather: HZ  (haze)

Forecast for: GFLL (FREETOWN/LUNGI , SL)
Text: TAF GFLL 221100Z 2212/2318 28009KT 8000 HZ FEW014
Forecast period: 1200 UTC 22 March 2019 to 1400 UTC 23 March 2019
Forecast type: FROM: standard forecast or significant change
Winds: from the W (280 degrees) at 10 MPH (9 knots; 4.6 m/s)
Visibility: 5 miles (8 km)
Ceiling: at least 12,000 feet AGL
Clouds: few clouds at 1400 feet AGL
Weather: HZ  (haze)
Text: TEMPO 33008KT SKC
Forecast period: 2000 UTC 22 March 2019 to 0000 UTC 23 March 2019
Forecast type: TEMPORARY: The following changes expected for less than half the time period
Winds: from the WSW (240 degrees) at 7 MPH (6 knots; 3.1 m/s)
Visibility: 5 miles (8 km)
Ceiling: unknown
Clouds: missing
Weather: HZ  (haze)
Text: TEMPO 2220/2300 24006KT 8000 HZ NSC
Forecast period: 0600 to 1000 UTC 23 March 2019
Forecast type: TEMPORARY: The following changes expected for less than half the time period
Winds: variable direction winds at 2 MPH (2 knots; 1.0 m/s)
Visibility: 3 miles (5 km)
Ceiling: at least 12,000 feet AGL
Clouds: scattered clouds at 1200 feet AGL
Weather: BR  (mist)
Text: TEMPO 2306/2310 VRB02KT 5000 BR SCT012
Forecast period: 1400 to 1800 UTC 23 March 2019
Forecast type: BECOMING: Conditions expected to become as follows by 1600 UTC 23 March 2019
Winds: from the W (280 degrees) at 10 MPH (9 knots; 4.6 m/s)
Visibility: 5 miles (8 km)
Ceiling: unknown
Clouds: missing
Weather: HZ  (haze)